NCAR-RAP Real-Time Weather Data

Output produced by METARs form (06 May 2021  17:07 UTC)
found at http://weather.rap.ucar.edu/surface/
 
KMLS 061653Z AUTO 33006KT 10SM CLR 15/02 A3027 RMK AO2 SLP255 T01500017
KMLS 061553Z AUTO 00000KT 10SM CLR 12/03 A3029 RMK AO2 SLP262 T01170028
KMLS 061453Z AUTO 18003KT 10SM CLR 08/03 A3030 RMK AO2 SLP270 T00780028 51004
KMLS 061353Z AUTO 16005KT 10SM CLR 04/02 A3030 RMK AO2 SLP271 T00440022
KMLS 061253Z AUTO 15006KT 10SM CLR 02/01 A3030 RMK AO2 SLP271 T00170006
KMLS 061153Z AUTO 15005KT 10SM CLR 00/M01 A3029 RMK AO2 SLP270 70004 T00001011 10039 20000 55001
KMLS 061053Z AUTO 14004KT 10SM FEW001 00/M01 A3029 RMK AO2 SLP270 T00001011
KMLS 061040Z AUTO 15004KT 3SM BR FEW001 01/M01 A3029 RMK AO2 T00061006
KMLS 061038Z AUTO 15004KT 1 1/4SM BR FEW001 01/M01 A3029 RMK AO2 T00061006
KMLS 061028Z AUTO 16004KT 3/4SM BR VV001 01/M01 A3029 RMK AO2 T00061006
KMLS 060953Z AUTO 19003KT 10SM CLR 02/01 A3029 RMK AO2 SLP269 T00220011
KMLS 060853Z AUTO 00000KT 10SM CLR 03/01 A3029 RMK AO2 SLP270 T00280006 50003
KMLS 060753Z AUTO 28005KT 10SM CLR 04/01 A3029 RMK AO2 SLP272 T00390011
KMLS 060653Z AUTO 31006KT 10SM CLR 03/01 A3029 RMK AO2 SLP267 T00280006 401331006
KMLS 060553Z AUTO 28006KT 10SM CLR 04/01 A3028 RMK AO2 SLP264 T00390011 10133 20039 51012
KMLS 060453Z AUTO 32007KT 10SM CLR 04/01 A3028 RMK AO2 SLP261 T00440011
KMLS 060353Z AUTO 36007KT 10SM CLR 07/02 A3027 RMK AO2 SLP260 T00670017